Anchor Point, AK (99556)

5:55 PM AKST on February 20, 2017 (GMT -0900)
Wilderness Greenhouse | | Change Station

Elev 335 ft 59.72 °N, 151.72 °W | Updated 24 seconds ago

Overcast
Overcast
15.9 °F
Feels Like 16 °F
N
0.0
Wind Variable Wind from South

Today
High -- | Low -- °F
--% Chance of Precip.
Yesterday
High -- | Low -- °F
Precip. -- in
Pressure 29.84 in
Visibility 1.2 miles
Clouds Overcast 1700 ft
Windchill 16 °F
Dew Point 12 °F
Humidity 85%
Rainfall 0.00 in
Snow Depth Not available.
8:29 AM 6:13 PM
Waning Crescent, 29% visible
SPECI PAHO 210251Z 24005KT 1 1/4SM -SN OVC017 M08/M13 A2984 RMK AO2 SNE04B25 P0000
Pressure 29.84 in
Visibility 1.2 miles
Clouds Overcast 1700 ft
Windchill 16 °F
Dew Point 12 °F
Humidity 85%
Rainfall 0.00 in
Snow Depth Not available.
8:29 AM 6:13 PM
Waning Crescent, 29% visible
SPECI PAHO 210251Z 24005KT 1 1/4SM -SN OVC017 M08/M13 A2984 RMK AO2 SNE04B25 P0000

Get Your Daily Forecast Email!

Thanks for signing up!

Be on the lookout for a verification email in your inbox.

You'll start receiving the daily forecast at 8 AM.

×

10-Day Weather Forecast

Almanac

Astronomy

Feb. 20, 2017 Rise Set
Actual Time
Civil Twilight
Nautical Twilight
Astronomical Twilight
Moon
Length of Visible Light
Length of Day
Tomorrow will be .
, % of the Moon is Illuminated

Today's Extremes

State Highs State Lows

Community

WunderPhotos

Upload Photos

1,962,540 photos uploaded!

WunderBlog® & News

Nearby

Air Quality

  Air Quality AQ Index Pollutant
Not available.

Snow Depth

Station Depth Elevation

Earthquake Activity

City Distance Mag. Time & Date
Minimum magnitude displayed is 2.5.

Coastal Water Temperatures

Place Temperature

Stations

Nearby Weather Stations

Station Location Temp. Windchill Dew Point Humidity Wind Precip. Elev Updated Type
                   

Watches & Warnings

There are currently no watches in effect.